sensor_id;sensor_type;location;lat;lon;timestamp;P1;durP1;ratioP1;P2;durP2;ratioP2
80219;SDS011;69535;37.974;23.708;2023-04-29T00:01:57;9.95;;;6.38;;
80219;SDS011;69535;37.974;23.708;2023-04-29T00:04:24;10.70;;;6.07;;
80219;SDS011;69535;37.974;23.708;2023-04-29T00:06:50;9.57;;;6.18;;
80219;SDS011;69535;37.974;23.708;2023-04-29T00:09:16;10.73;;;6.25;;
80219;SDS011;69535;37.974;23.708;2023-04-29T00:11:41;11.50;;;6.43;;
80219;SDS011;69535;37.974;23.708;2023-04-29T00:14:07;10.02;;;5.65;;
80219;SDS011;69535;37.974;23.708;2023-04-29T00:16:33;11.48;;;6.40;;
80219;SDS011;69535;37.974;23.708;2023-04-29T00:18:58;10.50;;;5.93;;
80219;SDS011;69535;37.974;23.708;2023-04-29T00:21:24;8.32;;;6.03;;
80219;SDS011;69535;37.974;23.708;2023-04-29T00:23:51;11.45;;;6.13;;
80219;SDS011;69535;37.974;23.708;2023-04-29T00:26:17;10.60;;;5.68;;
80219;SDS011;69535;37.974;23.708;2023-04-29T00:28:43;12.55;;;6.43;;
80219;SDS011;69535;37.974;23.708;2023-04-29T00:31:09;10.18;;;5.30;;
80219;SDS011;69535;37.974;23.708;2023-04-29T00:33:35;8.77;;;5.45;;
80219;SDS011;69535;37.974;23.708;2023-04-29T00:36:01;11.35;;;6.03;;
80219;SDS011;69535;37.974;23.708;2023-04-29T00:38:27;9.55;;;5.32;;
80219;SDS011;69535;37.974;23.708;2023-04-29T00:40:53;13.70;;;6.22;;
80219;SDS011;69535;37.974;23.708;2023-04-29T00:43:20;9.73;;;5.20;;
80219;SDS011;69535;37.974;23.708;2023-04-29T00:45:46;10.95;;;6.03;;
80219;SDS011;69535;37.974;23.708;2023-04-29T00:48:12;10.90;;;5.47;;
80219;SDS011;69535;37.974;23.708;2023-04-29T00:50:41;11.60;;;6.00;;
80219;SDS011;69535;37.974;23.708;2023-04-29T00:53:08;9.25;;;5.25;;
80219;SDS011;69535;37.974;23.708;2023-04-29T00:55:37;11.38;;;5.40;;
80219;SDS011;69535;37.974;23.708;2023-04-29T00:58:03;9.82;;;5.65;;
80219;SDS011;69535;37.974;23.708;2023-04-29T01:00:29;11.20;;;5.50;;
80219;SDS011;69535;37.974;23.708;2023-04-29T01:02:55;9.73;;;5.95;;
80219;SDS011;69535;37.974;23.708;2023-04-29T01:05:22;9.95;;;5.40;;
80219;SDS011;69535;37.974;23.708;2023-04-29T01:07:55;16.45;;;5.68;;
80219;SDS011;69535;37.974;23.708;2023-04-29T01:10:30;10.45;;;5.63;;
80219;SDS011;69535;37.974;23.708;2023-04-29T01:13:06;10.75;;;5.72;;
80219;SDS011;69535;37.974;23.708;2023-04-29T01:18:11;7.72;;;4.85;;
80219;SDS011;69535;37.974;23.708;2023-04-29T01:20:44;9.52;;;5.50;;
80219;SDS011;69535;37.974;23.708;2023-04-29T01:23:10;11.57;;;5.50;;
80219;SDS011;69535;37.974;23.708;2023-04-29T01:25:36;10.68;;;5.45;;
80219;SDS011;69535;37.974;23.708;2023-04-29T01:28:21;9.52;;;5.70;;
80219;SDS011;69535;37.974;23.708;2023-04-29T01:30:55;10.35;;;5.50;;
80219;SDS011;69535;37.974;23.708;2023-04-29T01:33:35;9.80;;;5.35;;
80219;SDS011;69535;37.974;23.708;2023-04-29T01:41:58;9.85;;;5.85;;
80219;SDS011;69535;37.974;23.708;2023-04-29T01:44:31;10.02;;;5.22;;
80219;SDS011;69535;37.974;23.708;2023-04-29T01:46:59;9.65;;;5.68;;
80219;SDS011;69535;37.974;23.708;2023-04-29T01:49:26;12.20;;;6.20;;
80219;SDS011;69535;37.974;23.708;2023-04-29T01:51:52;14.57;;;6.25;;
80219;SDS011;69535;37.974;23.708;2023-04-29T01:54:19;7.43;;;5.20;;
80219;SDS011;69535;37.974;23.708;2023-04-29T01:56:46;13.27;;;6.15;;
80219;SDS011;69535;37.974;23.708;2023-04-29T01:59:12;13.90;;;5.93;;
80219;SDS011;69535;37.974;23.708;2023-04-29T02:01:38;11.68;;;6.10;;
80219;SDS011;69535;37.974;23.708;2023-04-29T02:04:03;13.07;;;5.55;;
80219;SDS011;69535;37.974;23.708;2023-04-29T02:06:29;12.68;;;6.03;;
80219;SDS011;69535;37.974;23.708;2023-04-29T02:08:56;8.38;;;5.70;;
80219;SDS011;69535;37.974;23.708;2023-04-29T02:11:22;11.60;;;5.85;;
80219;SDS011;69535;37.974;23.708;2023-04-29T02:13:48;11.95;;;6.32;;
80219;SDS011;69535;37.974;23.708;2023-04-29T02:16:14;13.70;;;5.93;;
80219;SDS011;69535;37.974;23.708;2023-04-29T02:18:40;13.45;;;5.65;;
80219;SDS011;69535;37.974;23.708;2023-04-29T02:21:06;11.18;;;5.78;;
80219;SDS011;69535;37.974;23.708;2023-04-29T02:23:33;15.55;;;6.00;;
80219;SDS011;69535;37.974;23.708;2023-04-29T02:25:59;14.65;;;6.22;;
80219;SDS011;69535;37.974;23.708;2023-04-29T02:28:25;10.00;;;5.70;;
80219;SDS011;69535;37.974;23.708;2023-04-29T02:30:51;10.27;;;5.65;;
80219;SDS011;69535;37.974;23.708;2023-04-29T02:33:17;10.48;;;5.82;;
80219;SDS011;69535;37.974;23.708;2023-04-29T02:35:43;10.10;;;5.72;;
80219;SDS011;69535;37.974;23.708;2023-04-29T02:38:09;8.95;;;5.70;;
80219;SDS011;69535;37.974;23.708;2023-04-29T02:40:42;10.30;;;5.75;;
80219;SDS011;69535;37.974;23.708;2023-04-29T02:43:09;12.75;;;5.93;;
80219;SDS011;69535;37.974;23.708;2023-04-29T02:45:35;11.10;;;6.00;;
80219;SDS011;69535;37.974;23.708;2023-04-29T02:48:02;10.00;;;6.05;;
80219;SDS011;69535;37.974;23.708;2023-04-29T02:50:29;8.93;;;5.15;;
80219;SDS011;69535;37.974;23.708;2023-04-29T02:52:54;8.18;;;5.80;;
80219;SDS011;69535;37.974;23.708;2023-04-29T02:55:20;12.20;;;5.60;;
80219;SDS011;69535;37.974;23.708;2023-04-29T02:57:46;9.10;;;6.18;;
80219;SDS011;69535;37.974;23.708;2023-04-29T03:00:11;13.52;;;5.90;;
80219;SDS011;69535;37.974;23.708;2023-04-29T03:02:37;11.18;;;5.78;;
80219;SDS011;69535;37.974;23.708;2023-04-29T03:05:03;9.98;;;5.32;;
80219;SDS011;69535;37.974;23.708;2023-04-29T03:07:30;10.88;;;5.50;;
80219;SDS011;69535;37.974;23.708;2023-04-29T03:09:56;8.95;;;5.55;;
80219;SDS011;69535;37.974;23.708;2023-04-29T03:12:22;9.95;;;5.32;;
80219;SDS011;69535;37.974;23.708;2023-04-29T03:14:47;11.57;;;5.28;;
80219;SDS011;69535;37.974;23.708;2023-04-29T03:17:13;7.43;;;5.13;;
80219;SDS011;69535;37.974;23.708;2023-04-29T03:19:39;11.50;;;5.65;;
80219;SDS011;69535;37.974;23.708;2023-04-29T03:22:05;11.68;;;5.38;;
80219;SDS011;69535;37.974;23.708;2023-04-29T03:24:34;9.73;;;5.80;;
80219;SDS011;69535;37.974;23.708;2023-04-29T03:26:59;14.02;;;6.00;;
80219;SDS011;69535;37.974;23.708;2023-04-29T03:29:25;10.23;;;5.70;;
80219;SDS011;69535;37.974;23.708;2023-04-29T03:31:52;13.35;;;5.80;;
80219;SDS011;69535;37.974;23.708;2023-04-29T03:34:18;9.68;;;5.32;;
80219;SDS011;69535;37.974;23.708;2023-04-29T03:36:44;10.10;;;5.38;;
80219;SDS011;69535;37.974;23.708;2023-04-29T03:39:10;10.20;;;5.40;;
80219;SDS011;69535;37.974;23.708;2023-04-29T03:41:39;12.52;;;6.03;;
80219;SDS011;69535;37.974;23.708;2023-04-29T03:44:04;12.10;;;5.88;;
80219;SDS011;69535;37.974;23.708;2023-04-29T03:46:30;9.05;;;5.88;;
80219;SDS011;69535;37.974;23.708;2023-04-29T03:48:56;12.07;;;5.88;;
80219;SDS011;69535;37.974;23.708;2023-04-29T03:51:22;8.95;;;5.47;;
80219;SDS011;69535;37.974;23.708;2023-04-29T03:53:49;12.77;;;5.90;;
80219;SDS011;69535;37.974;23.708;2023-04-29T03:56:15;11.30;;;5.80;;
80219;SDS011;69535;37.974;23.708;2023-04-29T03:58:41;13.00;;;5.40;;
80219;SDS011;69535;37.974;23.708;2023-04-29T04:01:07;19.50;;;6.45;;
80219;SDS011;69535;37.974;23.708;2023-04-29T04:03:33;10.38;;;5.43;;
80219;SDS011;69535;37.974;23.708;2023-04-29T04:05:58;18.00;;;5.35;;
80219;SDS011;69535;37.974;23.708;2023-04-29T04:08:24;12.23;;;5.65;;
80219;SDS011;69535;37.974;23.708;2023-04-29T04:10:50;12.60;;;5.60;;
80219;SDS011;69535;37.974;23.708;2023-04-29T04:13:16;14.32;;;6.32;;
80219;SDS011;69535;37.974;23.708;2023-04-29T04:15:41;18.20;;;5.95;;
80219;SDS011;69535;37.974;23.708;2023-04-29T04:18:13;9.52;;;5.57;;
80219;SDS011;69535;37.974;23.708;2023-04-29T04:20:38;14.27;;;5.72;;
80219;SDS011;69535;37.974;23.708;2023-04-29T04:23:04;14.00;;;5.75;;
80219;SDS011;69535;37.974;23.708;2023-04-29T04:25:30;12.05;;;5.75;;
80219;SDS011;69535;37.974;23.708;2023-04-29T04:27:56;10.55;;;5.93;;
80219;SDS011;69535;37.974;23.708;2023-04-29T04:30:21;10.50;;;5.85;;
80219;SDS011;69535;37.974;23.708;2023-04-29T04:32:47;10.45;;;6.47;;
80219;SDS011;69535;37.974;23.708;2023-04-29T04:35:13;12.60;;;6.03;;
80219;SDS011;69535;37.974;23.708;2023-04-29T04:37:39;12.75;;;6.30;;
80219;SDS011;69535;37.974;23.708;2023-04-29T04:40:05;12.25;;;6.05;;
80219;SDS011;69535;37.974;23.708;2023-04-29T04:42:32;10.52;;;5.88;;
80219;SDS011;69535;37.974;23.708;2023-04-29T04:44:58;14.00;;;6.28;;
80219;SDS011;69535;37.974;23.708;2023-04-29T04:47:23;17.10;;;6.75;;
80219;SDS011;69535;37.974;23.708;2023-04-29T04:49:49;13.15;;;6.28;;
80219;SDS011;69535;37.974;23.708;2023-04-29T04:52:18;11.25;;;6.32;;
80219;SDS011;69535;37.974;23.708;2023-04-29T04:54:45;17.08;;;7.30;;
80219;SDS011;69535;37.974;23.708;2023-04-29T04:57:11;12.13;;;6.07;;
80219;SDS011;69535;37.974;23.708;2023-04-29T04:59:37;11.55;;;6.35;;
80219;SDS011;69535;37.974;23.708;2023-04-29T05:02:02;16.70;;;6.82;;
80219;SDS011;69535;37.974;23.708;2023-04-29T05:04:28;12.32;;;6.35;;
80219;SDS011;69535;37.974;23.708;2023-04-29T05:06:54;14.20;;;6.57;;
80219;SDS011;69535;37.974;23.708;2023-04-29T05:09:20;16.52;;;6.97;;
80219;SDS011;69535;37.974;23.708;2023-04-29T05:11:46;21.00;;;6.75;;
80219;SDS011;69535;37.974;23.708;2023-04-29T05:14:12;13.95;;;7.40;;
80219;SDS011;69535;37.974;23.708;2023-04-29T05:16:37;14.68;;;6.97;;
80219;SDS011;69535;37.974;23.708;2023-04-29T05:19:03;14.02;;;6.40;;
80219;SDS011;69535;37.974;23.708;2023-04-29T05:21:29;17.92;;;7.13;;
80219;SDS011;69535;37.974;23.708;2023-04-29T05:23:55;10.45;;;6.60;;
80219;SDS011;69535;37.974;23.708;2023-04-29T05:26:21;12.93;;;7.50;;
80219;SDS011;69535;37.974;23.708;2023-04-29T05:28:47;14.57;;;7.28;;
80219;SDS011;69535;37.974;23.708;2023-04-29T05:31:13;15.30;;;7.38;;
80219;SDS011;69535;37.974;23.708;2023-04-29T05:33:39;14.45;;;7.05;;
80219;SDS011;69535;37.974;23.708;2023-04-29T05:36:04;15.20;;;7.18;;
80219;SDS011;69535;37.974;23.708;2023-04-29T05:38:31;10.85;;;6.10;;
80219;SDS011;69535;37.974;23.708;2023-04-29T05:40:57;12.70;;;6.60;;
80219;SDS011;69535;37.974;23.708;2023-04-29T05:43:23;9.88;;;6.50;;
80219;SDS011;69535;37.974;23.708;2023-04-29T05:45:49;9.68;;;6.35;;
80219;SDS011;69535;37.974;23.708;2023-04-29T05:48:15;12.48;;;6.78;;
80219;SDS011;69535;37.974;23.708;2023-04-29T05:50:40;15.48;;;6.63;;
80219;SDS011;69535;37.974;23.708;2023-04-29T05:53:06;14.65;;;7.07;;
80219;SDS011;69535;37.974;23.708;2023-04-29T05:55:32;10.70;;;6.43;;
80219;SDS011;69535;37.974;23.708;2023-04-29T05:57:58;9.27;;;5.75;;
80219;SDS011;69535;37.974;23.708;2023-04-29T06:00:23;11.38;;;6.07;;
80219;SDS011;69535;37.974;23.708;2023-04-29T06:02:49;12.40;;;6.00;;
80219;SDS011;69535;37.974;23.708;2023-04-29T06:05:15;13.48;;;5.93;;
80219;SDS011;69535;37.974;23.708;2023-04-29T06:07:41;10.68;;;5.20;;
80219;SDS011;69535;37.974;23.708;2023-04-29T06:10:07;9.63;;;5.50;;
80219;SDS011;69535;37.974;23.708;2023-04-29T06:12:33;15.40;;;5.55;;
80219;SDS011;69535;37.974;23.708;2023-04-29T06:14:59;10.52;;;5.32;;
80219;SDS011;69535;37.974;23.708;2023-04-29T06:17:25;7.65;;;4.82;;
80219;SDS011;69535;37.974;23.708;2023-04-29T06:19:53;11.57;;;5.32;;
80219;SDS011;69535;37.974;23.708;2023-04-29T06:22:20;11.15;;;5.10;;
80219;SDS011;69535;37.974;23.708;2023-04-29T06:24:46;10.50;;;5.00;;
80219;SDS011;69535;37.974;23.708;2023-04-29T06:27:14;12.30;;;5.25;;
80219;SDS011;69535;37.974;23.708;2023-04-29T06:29:40;10.20;;;4.72;;
80219;SDS011;69535;37.974;23.708;2023-04-29T06:32:06;7.85;;;5.30;;
80219;SDS011;69535;37.974;23.708;2023-04-29T06:34:32;9.38;;;4.70;;
80219;SDS011;69535;37.974;23.708;2023-04-29T06:36:57;8.73;;;4.85;;
80219;SDS011;69535;37.974;23.708;2023-04-29T06:39:23;8.95;;;4.65;;
80219;SDS011;69535;37.974;23.708;2023-04-29T06:41:49;8.00;;;4.45;;
80219;SDS011;69535;37.974;23.708;2023-04-29T06:44:16;8.68;;;4.70;;
80219;SDS011;69535;37.974;23.708;2023-04-29T06:46:42;7.40;;;4.80;;
80219;SDS011;69535;37.974;23.708;2023-04-29T06:49:09;13.40;;;5.32;;
80219;SDS011;69535;37.974;23.708;2023-04-29T06:51:37;13.57;;;5.13;;
80219;SDS011;69535;37.974;23.708;2023-04-29T06:54:03;9.18;;;4.82;;
80219;SDS011;69535;37.974;23.708;2023-04-29T06:56:29;13.15;;;5.10;;
80219;SDS011;69535;37.974;23.708;2023-04-29T06:58:55;9.80;;;5.22;;
80219;SDS011;69535;37.974;23.708;2023-04-29T07:01:21;8.95;;;5.07;;
80219;SDS011;69535;37.974;23.708;2023-04-29T07:03:46;8.10;;;4.65;;
80219;SDS011;69535;37.974;23.708;2023-04-29T07:06:12;9.48;;;4.95;;
80219;SDS011;69535;37.974;23.708;2023-04-29T07:08:38;8.80;;;4.60;;
80219;SDS011;69535;37.974;23.708;2023-04-29T07:11:04;7.60;;;4.47;;
80219;SDS011;69535;37.974;23.708;2023-04-29T07:13:30;7.60;;;4.35;;
80219;SDS011;69535;37.974;23.708;2023-04-29T07:15:55;12.48;;;4.85;;
80219;SDS011;69535;37.974;23.708;2023-04-29T07:18:21;8.00;;;4.72;;
80219;SDS011;69535;37.974;23.708;2023-04-29T07:20:47;8.02;;;4.25;;
80219;SDS011;69535;37.974;23.708;2023-04-29T07:23:15;9.27;;;5.20;;
80219;SDS011;69535;37.974;23.708;2023-04-29T07:25:40;9.38;;;5.35;;
80219;SDS011;69535;37.974;23.708;2023-04-29T07:28:06;7.43;;;4.70;;
80219;SDS011;69535;37.974;23.708;2023-04-29T07:30:35;8.50;;;4.28;;
80219;SDS011;69535;37.974;23.708;2023-04-29T07:33:01;11.35;;;4.70;;
80219;SDS011;69535;37.974;23.708;2023-04-29T07:35:28;6.15;;;4.32;;
80219;SDS011;69535;37.974;23.708;2023-04-29T07:37:54;7.95;;;4.47;;
80219;SDS011;69535;37.974;23.708;2023-04-29T07:40:20;7.65;;;4.50;;
80219;SDS011;69535;37.974;23.708;2023-04-29T07:42:45;6.72;;;4.50;;
80219;SDS011;69535;37.974;23.708;2023-04-29T07:45:11;6.97;;;4.60;;
80219;SDS011;69535;37.974;23.708;2023-04-29T07:47:38;6.18;;;4.18;;
80219;SDS011;69535;37.974;23.708;2023-04-29T07:50:04;7.80;;;4.50;;
80219;SDS011;69535;37.974;23.708;2023-04-29T07:52:30;6.55;;;4.45;;
80219;SDS011;69535;37.974;23.708;2023-04-29T07:54:55;6.25;;;4.20;;
80219;SDS011;69535;37.974;23.708;2023-04-29T07:57:21;6.70;;;4.30;;
80219;SDS011;69535;37.974;23.708;2023-04-29T07:59:53;6.30;;;4.15;;
80219;SDS011;69535;37.974;23.708;2023-04-29T08:02:19;7.18;;;4.28;;
80219;SDS011;69535;37.974;23.708;2023-04-29T08:04:45;5.95;;;4.30;;
80219;SDS011;69535;37.974;23.708;2023-04-29T08:07:11;8.88;;;4.50;;
80219;SDS011;69535;37.974;23.708;2023-04-29T08:09:37;5.72;;;3.95;;
80219;SDS011;69535;37.974;23.708;2023-04-29T08:12:03;6.28;;;3.92;;
80219;SDS011;69535;37.974;23.708;2023-04-29T08:14:29;6.55;;;4.38;;
80219;SDS011;69535;37.974;23.708;2023-04-29T08:16:55;8.32;;;4.38;;
80219;SDS011;69535;37.974;23.708;2023-04-29T08:19:21;6.63;;;4.10;;
80219;SDS011;69535;37.974;23.708;2023-04-29T08:21:46;7.68;;;4.15;;
80219;SDS011;69535;37.974;23.708;2023-04-29T08:24:12;7.40;;;4.18;;
80219;SDS011;69535;37.974;23.708;2023-04-29T08:26:41;6.95;;;4.38;;
80219;SDS011;69535;37.974;23.708;2023-04-29T08:29:07;7.60;;;4.20;;
80219;SDS011;69535;37.974;23.708;2023-04-29T08:31:33;5.38;;;3.78;;
80219;SDS011;69535;37.974;23.708;2023-04-29T08:33:58;5.47;;;4.13;;
80219;SDS011;69535;37.974;23.708;2023-04-29T08:36:24;7.03;;;4.25;;
80219;SDS011;69535;37.974;23.708;2023-04-29T08:38:52;6.57;;;4.43;;
80219;SDS011;69535;37.974;23.708;2023-04-29T08:41:19;7.13;;;4.30;;
80219;SDS011;69535;37.974;23.708;2023-04-29T08:43:44;6.75;;;4.22;;
80219;SDS011;69535;37.974;23.708;2023-04-29T08:46:10;6.28;;;3.75;;
80219;SDS011;69535;37.974;23.708;2023-04-29T08:48:37;4.68;;;3.90;;
80219;SDS011;69535;37.974;23.708;2023-04-29T08:51:06;6.28;;;4.18;;
80219;SDS011;69535;37.974;23.708;2023-04-29T08:53:32;6.38;;;4.30;;
80219;SDS011;69535;37.974;23.708;2023-04-29T08:55:59;6.28;;;4.20;;
80219;SDS011;69535;37.974;23.708;2023-04-29T08:58:33;8.30;;;4.40;;
80219;SDS011;69535;37.974;23.708;2023-04-29T09:01:00;5.28;;;4.10;;
80219;SDS011;69535;37.974;23.708;2023-04-29T09:03:30;6.65;;;4.30;;
80219;SDS011;69535;37.974;23.708;2023-04-29T09:06:01;7.07;;;4.10;;
80219;SDS011;69535;37.974;23.708;2023-04-29T09:08:29;6.97;;;4.20;;
80219;SDS011;69535;37.974;23.708;2023-04-29T09:10:56;6.78;;;4.18;;
80219;SDS011;69535;37.974;23.708;2023-04-29T09:13:27;7.75;;;4.00;;
80219;SDS011;69535;37.974;23.708;2023-04-29T09:15:54;10.32;;;4.15;;
80219;SDS011;69535;37.974;23.708;2023-04-29T09:21:12;6.53;;;3.80;;
80219;SDS011;69535;37.974;23.708;2023-04-29T09:23:45;5.40;;;3.83;;
80219;SDS011;69535;37.974;23.708;2023-04-29T09:26:13;9.60;;;4.00;;
80219;SDS011;69535;37.974;23.708;2023-04-29T09:28:39;10.55;;;4.30;;
80219;SDS011;69535;37.974;23.708;2023-04-29T09:31:07;5.97;;;4.05;;
80219;SDS011;69535;37.974;23.708;2023-04-29T09:33:53;6.20;;;3.95;;
80219;SDS011;69535;37.974;23.708;2023-04-29T09:36:36;7.30;;;4.10;;
80219;SDS011;69535;37.974;23.708;2023-04-29T09:39:06;5.20;;;3.90;;
80219;SDS011;69535;37.974;23.708;2023-04-29T09:41:39;6.28;;;4.18;;
80219;SDS011;69535;37.974;23.708;2023-04-29T09:44:07;6.68;;;3.90;;
80219;SDS011;69535;37.974;23.708;2023-04-29T09:46:33;7.75;;;4.00;;
80219;SDS011;69535;37.974;23.708;2023-04-29T09:49:00;8.05;;;4.30;;
80219;SDS011;69535;37.974;23.708;2023-04-29T09:51:28;4.70;;;3.97;;
80219;SDS011;69535;37.974;23.708;2023-04-29T09:53:57;6.53;;;4.30;;
80219;SDS011;69535;37.974;23.708;2023-04-29T09:56:23;6.88;;;3.88;;
80219;SDS011;69535;37.974;23.708;2023-04-29T09:58:53;6.47;;;3.80;;
80219;SDS011;69535;37.974;23.708;2023-04-29T10:01:19;6.72;;;4.38;;
80219;SDS011;69535;37.974;23.708;2023-04-29T10:03:46;5.32;;;4.10;;
80219;SDS011;69535;37.974;23.708;2023-04-29T10:06:13;6.07;;;3.67;;
80219;SDS011;69535;37.974;23.708;2023-04-29T10:08:41;6.82;;;4.60;;
80219;SDS011;69535;37.974;23.708;2023-04-29T10:11:10;5.90;;;3.90;;
80219;SDS011;69535;37.974;23.708;2023-04-29T10:13:37;5.88;;;4.10;;
80219;SDS011;69535;37.974;23.708;2023-04-29T10:16:22;7.25;;;4.22;;
80219;SDS011;69535;37.974;23.708;2023-04-29T10:18:55;8.00;;;4.10;;
80219;SDS011;69535;37.974;23.708;2023-04-29T10:21:28;7.35;;;4.10;;
80219;SDS011;69535;37.974;23.708;2023-04-29T10:23:58;6.15;;;3.97;;
80219;SDS011;69535;37.974;23.708;2023-04-29T10:26:29;6.25;;;3.97;;
80219;SDS011;69535;37.974;23.708;2023-04-29T10:28:56;5.45;;;4.00;;
80219;SDS011;69535;37.974;23.708;2023-04-29T10:31:27;6.65;;;4.18;;
80219;SDS011;69535;37.974;23.708;2023-04-29T10:33:54;6.55;;;4.10;;
80219;SDS011;69535;37.974;23.708;2023-04-29T10:36:25;6.18;;;4.10;;
80219;SDS011;69535;37.974;23.708;2023-04-29T10:38:53;5.00;;;4.10;;
80219;SDS011;69535;37.974;23.708;2023-04-29T10:41:25;6.25;;;3.97;;
80219;SDS011;69535;37.974;23.708;2023-04-29T10:43:54;6.45;;;4.13;;
80219;SDS011;69535;37.974;23.708;2023-04-29T10:48:48;6.40;;;3.83;;
80219;SDS011;69535;37.974;23.708;2023-04-29T10:51:29;8.52;;;3.92;;
80219;SDS011;69535;37.974;23.708;2023-04-29T10:56:39;6.88;;;4.22;;
80219;SDS011;69535;37.974;23.708;2023-04-29T10:59:10;4.18;;;3.78;;
80219;SDS011;69535;37.974;23.708;2023-04-29T11:01:44;7.15;;;4.10;;
80219;SDS011;69535;37.974;23.708;2023-04-29T11:04:12;5.07;;;4.00;;
80219;SDS011;69535;37.974;23.708;2023-04-29T11:06:40;7.75;;;3.97;;
80219;SDS011;69535;37.974;23.708;2023-04-29T11:14:11;6.95;;;4.13;;
80219;SDS011;69535;37.974;23.708;2023-04-29T11:16:37;4.93;;;4.13;;
80219;SDS011;69535;37.974;23.708;2023-04-29T11:19:13;7.75;;;4.28;;
80219;SDS011;69535;37.974;23.708;2023-04-29T11:21:40;8.93;;;3.88;;
80219;SDS011;69535;37.974;23.708;2023-04-29T11:24:09;6.03;;;4.00;;
80219;SDS011;69535;37.974;23.708;2023-04-29T11:26:36;5.40;;;3.80;;
80219;SDS011;69535;37.974;23.708;2023-04-29T11:29:06;6.45;;;3.97;;
80219;SDS011;69535;37.974;23.708;2023-04-29T11:31:34;6.25;;;4.05;;
80219;SDS011;69535;37.974;23.708;2023-04-29T11:34:02;5.07;;;3.80;;
80219;SDS011;69535;37.974;23.708;2023-04-29T11:36:30;5.95;;;4.20;;
80219;SDS011;69535;37.974;23.708;2023-04-29T11:38:58;4.45;;;3.60;;
80219;SDS011;69535;37.974;23.708;2023-04-29T11:41:28;5.53;;;3.97;;
80219;SDS011;69535;37.974;23.708;2023-04-29T11:43:56;4.97;;;3.58;;
80219;SDS011;69535;37.974;23.708;2023-04-29T11:46:23;6.45;;;4.00;;
80219;SDS011;69535;37.974;23.708;2023-04-29T11:48:50;4.72;;;3.58;;
80219;SDS011;69535;37.974;23.708;2023-04-29T11:51:17;5.30;;;3.97;;
80219;SDS011;69535;37.974;23.708;2023-04-29T11:53:43;5.65;;;3.80;;
80219;SDS011;69535;37.974;23.708;2023-04-29T11:56:10;5.70;;;3.88;;
80219;SDS011;69535;37.974;23.708;2023-04-29T11:58:36;6.70;;;4.07;;
80219;SDS011;69535;37.974;23.708;2023-04-29T12:01:03;5.75;;;3.70;;
80219;SDS011;69535;37.974;23.708;2023-04-29T12:03:30;4.90;;;3.97;;
80219;SDS011;69535;37.974;23.708;2023-04-29T12:05:57;5.63;;;3.97;;
80219;SDS011;69535;37.974;23.708;2023-04-29T12:08:26;7.03;;;4.13;;
80219;SDS011;69535;37.974;23.708;2023-04-29T12:10:54;5.32;;;3.85;;
80219;SDS011;69535;37.974;23.708;2023-04-29T12:13:21;6.60;;;3.75;;
80219;SDS011;69535;37.974;23.708;2023-04-29T12:15:49;7.97;;;4.13;;
80219;SDS011;69535;37.974;23.708;2023-04-29T12:18:16;8.23;;;4.30;;
80219;SDS011;69535;37.974;23.708;2023-04-29T12:20:46;6.63;;;4.03;;
80219;SDS011;69535;37.974;23.708;2023-04-29T12:25:39;6.63;;;3.92;;
80219;SDS011;69535;37.974;23.708;2023-04-29T12:28:10;6.68;;;4.30;;
80219;SDS011;69535;37.974;23.708;2023-04-29T12:30:37;6.68;;;4.30;;
80219;SDS011;69535;37.974;23.708;2023-04-29T12:33:02;5.97;;;4.43;;
80219;SDS011;69535;37.974;23.708;2023-04-29T12:35:28;7.70;;;4.50;;
80219;SDS011;69535;37.974;23.708;2023-04-29T12:37:56;5.63;;;4.20;;
80219;SDS011;69535;37.974;23.708;2023-04-29T12:40:23;6.80;;;4.22;;
80219;SDS011;69535;37.974;23.708;2023-04-29T12:42:49;6.93;;;4.22;;
80219;SDS011;69535;37.974;23.708;2023-04-29T12:45:30;5.65;;;4.32;;
80219;SDS011;69535;37.974;23.708;2023-04-29T12:47:57;7.88;;;4.30;;
80219;SDS011;69535;37.974;23.708;2023-04-29T12:50:30;6.18;;;4.35;;
80219;SDS011;69535;37.974;23.708;2023-04-29T12:53:00;6.28;;;4.30;;
80219;SDS011;69535;37.974;23.708;2023-04-29T12:55:28;7.22;;;4.20;;
80219;SDS011;69535;37.974;23.708;2023-04-29T12:57:53;5.40;;;4.05;;
80219;SDS011;69535;37.974;23.708;2023-04-29T13:00:19;8.43;;;4.30;;
80219;SDS011;69535;37.974;23.708;2023-04-29T13:02:45;6.47;;;4.18;;
80219;SDS011;69535;37.974;23.708;2023-04-29T13:05:12;6.82;;;4.40;;
80219;SDS011;69535;37.974;23.708;2023-04-29T13:07:37;8.07;;;4.18;;
80219;SDS011;69535;37.974;23.708;2023-04-29T13:10:04;6.47;;;4.30;;
80219;SDS011;69535;37.974;23.708;2023-04-29T13:12:31;7.45;;;4.53;;
80219;SDS011;69535;37.974;23.708;2023-04-29T13:14:57;5.80;;;4.10;;
80219;SDS011;69535;37.974;23.708;2023-04-29T13:17:23;7.38;;;3.88;;
80219;SDS011;69535;37.974;23.708;2023-04-29T13:19:48;5.78;;;4.20;;
80219;SDS011;69535;37.974;23.708;2023-04-29T13:22:15;6.43;;;4.13;;
80219;SDS011;69535;37.974;23.708;2023-04-29T13:24:41;5.97;;;4.13;;
80219;SDS011;69535;37.974;23.708;2023-04-29T13:27:06;5.90;;;4.10;;
80219;SDS011;69535;37.974;23.708;2023-04-29T13:29:32;7.05;;;4.28;;
80219;SDS011;69535;37.974;23.708;2023-04-29T13:31:58;6.45;;;4.43;;
80219;SDS011;69535;37.974;23.708;2023-04-29T13:34:24;6.95;;;4.20;;
80219;SDS011;69535;37.974;23.708;2023-04-29T13:36:49;6.07;;;4.35;;
80219;SDS011;69535;37.974;23.708;2023-04-29T13:39:15;5.25;;;4.10;;
80219;SDS011;69535;37.974;23.708;2023-04-29T13:41:41;5.90;;;4.05;;
80219;SDS011;69535;37.974;23.708;2023-04-29T13:44:07;8.02;;;4.18;;
80219;SDS011;69535;37.974;23.708;2023-04-29T13:46:32;5.80;;;3.95;;
80219;SDS011;69535;37.974;23.708;2023-04-29T13:48:58;5.05;;;4.22;;
80219;SDS011;69535;37.974;23.708;2023-04-29T13:51:24;5.03;;;3.90;;
80219;SDS011;69535;37.974;23.708;2023-04-29T13:53:50;7.63;;;4.30;;
80219;SDS011;69535;37.974;23.708;2023-04-29T13:56:15;5.72;;;3.72;;
80219;SDS011;69535;37.974;23.708;2023-04-29T13:58:41;6.32;;;4.05;;
80219;SDS011;69535;37.974;23.708;2023-04-29T14:01:07;7.20;;;4.05;;
80219;SDS011;69535;37.974;23.708;2023-04-29T14:03:33;4.60;;;3.72;;
80219;SDS011;69535;37.974;23.708;2023-04-29T14:05:58;6.03;;;4.00;;
80219;SDS011;69535;37.974;23.708;2023-04-29T14:08:25;4.60;;;4.00;;
80219;SDS011;69535;37.974;23.708;2023-04-29T14:10:50;5.93;;;4.15;;
80219;SDS011;69535;37.974;23.708;2023-04-29T14:13:16;7.72;;;4.32;;
80219;SDS011;69535;37.974;23.708;2023-04-29T14:15:42;4.93;;;4.13;;
80219;SDS011;69535;37.974;23.708;2023-04-29T14:18:08;6.55;;;3.95;;
80219;SDS011;69535;37.974;23.708;2023-04-29T14:20:35;5.50;;;3.80;;
80219;SDS011;69535;37.974;23.708;2023-04-29T14:23:01;5.90;;;3.95;;
80219;SDS011;69535;37.974;23.708;2023-04-29T14:25:27;7.35;;;4.07;;
80219;SDS011;69535;37.974;23.708;2023-04-29T14:27:53;6.68;;;4.13;;
80219;SDS011;69535;37.974;23.708;2023-04-29T14:30:19;5.43;;;3.80;;
80219;SDS011;69535;37.974;23.708;2023-04-29T14:32:44;5.57;;;3.60;;
80219;SDS011;69535;37.974;23.708;2023-04-29T14:35:10;7.53;;;4.00;;
80219;SDS011;69535;37.974;23.708;2023-04-29T14:37:36;7.13;;;4.40;;
80219;SDS011;69535;37.974;23.708;2023-04-29T14:40:02;4.68;;;3.78;;
80219;SDS011;69535;37.974;23.708;2023-04-29T14:42:28;4.43;;;3.65;;
80219;SDS011;69535;37.974;23.708;2023-04-29T14:44:54;5.47;;;3.92;;
80219;SDS011;69535;37.974;23.708;2023-04-29T14:47:20;7.18;;;3.88;;
80219;SDS011;69535;37.974;23.708;2023-04-29T14:49:45;5.68;;;3.90;;
80219;SDS011;69535;37.974;23.708;2023-04-29T14:52:11;4.88;;;3.65;;
80219;SDS011;69535;37.974;23.708;2023-04-29T14:54:37;5.70;;;3.42;;